createdAt,value
2023-03-27T00:02:23.166Z,10.90
2023-03-27T00:04:50.463Z,10.80
2023-03-27T00:07:17.278Z,10.80
2023-03-27T00:09:46.366Z,10.80
2023-03-27T00:12:13.228Z,10.80
2023-03-27T00:14:40.188Z,10.80
2023-03-27T00:17:07.037Z,10.70
2023-03-27T00:19:33.987Z,10.70
2023-03-27T00:22:01.447Z,10.80
2023-03-27T00:24:28.424Z,10.80
2023-03-27T00:26:55.249Z,10.80
2023-03-27T00:29:22.134Z,10.70
2023-03-27T00:31:49.038Z,10.70
2023-03-27T00:34:16.181Z,10.70
2023-03-27T00:36:43.784Z,10.60
2023-03-27T00:39:11.277Z,10.60
2023-03-27T00:41:38.152Z,10.60
2023-03-27T00:44:25.612Z,10.70
2023-03-27T00:46:55.291Z,10.60
2023-03-27T00:49:27.013Z,10.50
2023-03-27T00:51:54.462Z,10.50
2023-03-27T00:54:26.715Z,10.40
2023-03-27T00:57:05.141Z,10.40
2023-03-27T00:59:35.969Z,10.40
2023-03-27T01:02:04.965Z,10.40
2023-03-27T01:04:33.508Z,10.40
2023-03-27T01:07:01.004Z,10.40
2023-03-27T01:09:28.963Z,10.30
2023-03-27T01:12:25.918Z,10.30
2023-03-27T01:15:14.643Z,10.30
2023-03-27T01:17:59.854Z,10.30
2023-03-27T01:20:47.043Z,10.30
2023-03-27T01:23:58.656Z,10.20
2023-03-27T01:26:39.154Z,10.30
2023-03-27T01:29:15.051Z,10.10
2023-03-27T01:32:20.260Z,10.00
2023-03-27T01:35:11.714Z,10.00
2023-03-27T01:38:16.808Z,9.90
2023-03-27T01:41:06.065Z,9.90
2023-03-27T01:43:58.728Z,9.90
2023-03-27T01:46:38.059Z,9.90
2023-03-27T01:49:15.337Z,9.90
2023-03-27T01:51:48.733Z,9.90
2023-03-27T01:54:38.733Z,9.80
2023-03-27T01:57:22.241Z,9.80
2023-03-27T02:00:18.563Z,9.80
2023-03-27T02:03:05.517Z,9.80
2023-03-27T02:05:47.969Z,9.80
2023-03-27T02:08:24.755Z,9.80
2023-03-27T02:10:59.051Z,9.70
2023-03-27T02:13:39.200Z,9.70
2023-03-27T02:16:09.541Z,9.60
2023-03-27T02:21:40.416Z,9.60
2023-03-27T02:24:08.964Z,9.60
2023-03-27T02:26:36.449Z,9.50
2023-03-27T02:29:07.177Z,9.50
2023-03-27T02:32:03.117Z,9.50
2023-03-27T02:34:31.595Z,9.50
2023-03-27T02:37:17.561Z,9.50
2023-03-27T02:40:40.529Z,9.40
2023-03-27T02:43:33.544Z,9.40
2023-03-27T02:46:13.800Z,9.40
2023-03-27T02:48:46.246Z,9.30
2023-03-27T02:51:18.003Z,9.30
2023-03-27T02:53:54.830Z,9.30
2023-03-27T02:56:24.513Z,9.30
2023-03-27T02:58:58.305Z,9.30
2023-03-27T03:01:33.843Z,9.20
2023-03-27T03:04:33.109Z,9.20
2023-03-27T03:07:04.326Z,9.20
2023-03-27T03:09:31.620Z,9.10
2023-03-27T03:11:59.097Z,9.10
2023-03-27T03:14:33.541Z,9.10
2023-03-27T03:17:00.944Z,9.10
2023-03-27T03:19:27.917Z,9.30
2023-03-27T03:21:55.707Z,9.10
2023-03-27T03:24:22.560Z,9.10
2023-03-27T03:26:50.316Z,9.10
2023-03-27T03:29:21.946Z,9.00
2023-03-27T03:32:06.800Z,9.00
2023-03-27T03:34:34.892Z,9.10
2023-03-27T03:37:01.993Z,9.00
2023-03-27T03:39:31.339Z,9.00
2023-03-27T03:41:58.348Z,9.00
2023-03-27T03:44:25.270Z,9.00
2023-03-27T03:46:53.380Z,9.00
2023-03-27T03:49:21.739Z,9.00
2023-03-27T03:52:03.725Z,9.00
2023-03-27T03:54:33.037Z,8.90
2023-03-27T03:57:00.054Z,9.00
2023-03-27T03:59:27.576Z,9.00
2023-03-27T04:02:29.904Z,8.90
2023-03-27T04:05:08.565Z,8.90
2023-03-27T04:07:40.087Z,8.90
2023-03-27T04:10:20.680Z,8.90
2023-03-27T04:12:49.069Z,8.90
2023-03-27T04:15:24.293Z,8.90
2023-03-27T04:18:09.425Z,8.90
2023-03-27T04:20:38.205Z,8.90
2023-03-27T04:23:08.922Z,8.90
2023-03-27T04:25:38.325Z,8.90
2023-03-27T04:28:06.207Z,8.90
2023-03-27T04:30:44.358Z,8.90
2023-03-27T04:33:20.538Z,8.90
2023-03-27T04:36:06.958Z,8.90
2023-03-27T04:39:03.953Z,8.90
2023-03-27T04:41:32.694Z,8.80
2023-03-27T04:43:59.638Z,8.80
2023-03-27T04:46:26.865Z,8.80
2023-03-27T04:49:02.962Z,8.90
2023-03-27T04:51:46.934Z,8.90
2023-03-27T04:54:14.740Z,8.90
2023-03-27T04:56:45.670Z,8.90
2023-03-27T04:59:13.472Z,8.90
2023-03-27T05:01:41.666Z,8.90
2023-03-27T05:04:32.039Z,8.80
2023-03-27T05:07:28.519Z,8.90
2023-03-27T05:09:57.247Z,8.90
2023-03-27T05:12:29.261Z,8.80
2023-03-27T05:15:02.963Z,8.80
2023-03-27T05:17:42.020Z,8.90
2023-03-27T05:20:14.445Z,8.90
2023-03-27T05:22:42.450Z,8.90
2023-03-27T05:25:21.443Z,8.80
2023-03-27T05:27:49.759Z,8.80
2023-03-27T05:30:19.209Z,8.90
2023-03-27T05:32:51.953Z,8.80
2023-03-27T05:35:28.176Z,8.80
2023-03-27T05:37:57.514Z,8.80
2023-03-27T05:40:29.639Z,8.90
2023-03-27T05:42:57.926Z,8.80
2023-03-27T05:45:29.258Z,8.90
2023-03-27T05:47:58.598Z,8.90
2023-03-27T05:50:29.965Z,8.90
2023-03-27T05:53:01.223Z,8.90
2023-03-27T05:55:36.638Z,8.90
2023-03-27T05:58:06.608Z,8.90
2023-03-27T06:00:34.352Z,9.00
2023-03-27T06:03:03.516Z,8.90
2023-03-27T06:05:53.711Z,9.10
2023-03-27T06:08:21.094Z,9.10
2023-03-27T06:10:48.613Z,9.50
2023-03-27T06:13:21.903Z,9.20
2023-03-27T06:15:56.486Z,9.30
2023-03-27T06:18:50.263Z,9.20
2023-03-27T06:21:18.880Z,9.30
2023-03-27T06:23:46.225Z,9.30
2023-03-27T06:26:15.765Z,9.30
2023-03-27T06:28:43.596Z,9.30
2023-03-27T06:31:12.598Z,9.30
2023-03-27T06:33:43.763Z,9.20
2023-03-27T06:36:25.006Z,9.30
2023-03-27T06:38:52.067Z,9.30
2023-03-27T06:41:19.091Z,9.30
2023-03-27T06:44:09.022Z,9.30
2023-03-27T06:46:56.228Z,9.30
2023-03-27T06:49:29.270Z,9.30
2023-03-27T06:51:56.794Z,9.40
2023-03-27T06:54:24.257Z,9.40
2023-03-27T06:56:54.080Z,9.40
2023-03-27T06:59:22.454Z,9.50
2023-03-27T07:01:55.948Z,9.50
2023-03-27T07:04:22.944Z,9.50
2023-03-27T07:06:55.536Z,9.60
2023-03-27T07:09:22.727Z,9.60
2023-03-27T07:11:59.571Z,9.70
2023-03-27T07:14:26.666Z,9.70
2023-03-27T07:16:53.624Z,9.70
2023-03-27T07:19:23.303Z,9.80
2023-03-27T07:21:58.702Z,9.80
2023-03-27T07:24:25.806Z,9.80
2023-03-27T07:26:52.896Z,9.80
2023-03-27T07:29:22.908Z,9.90
2023-03-27T07:31:58.565Z,9.90
2023-03-27T07:34:53.603Z,10.00
2023-03-27T07:37:39.432Z,10.00
2023-03-27T07:40:36.917Z,10.00
2023-03-27T07:43:24.850Z,10.10
2023-03-27T07:45:52.654Z,10.20
2023-03-27T07:48:19.633Z,10.20
2023-03-27T07:50:48.640Z,10.20
2023-03-27T07:53:33.028Z,10.30
2023-03-27T07:56:10.868Z,10.40
2023-03-27T07:58:39.588Z,10.40
2023-03-27T08:01:07.769Z,10.40
2023-03-27T08:03:36.671Z,10.50
2023-03-27T08:06:03.695Z,10.50
2023-03-27T08:08:34.989Z,10.60
2023-03-27T08:11:05.092Z,10.60
2023-03-27T08:13:39.724Z,10.60
2023-03-27T08:16:10.613Z,11.00
2023-03-27T08:18:37.948Z,10.80
2023-03-27T08:21:08.565Z,10.90
2023-03-27T08:23:37.607Z,10.90
2023-03-27T08:26:22.944Z,11.00
2023-03-27T08:28:56.118Z,10.90
2023-03-27T08:31:27.977Z,11.00
2023-03-27T08:33:59.134Z,11.10
2023-03-27T08:36:31.990Z,11.10
2023-03-27T08:39:02.682Z,11.20
2023-03-27T08:41:44.349Z,11.20
2023-03-27T08:44:21.582Z,11.30
2023-03-27T08:47:03.366Z,11.30
2023-03-27T08:49:38.408Z,11.40
2023-03-27T08:52:32.992Z,11.50
2023-03-27T08:55:18.866Z,11.50
2023-03-27T08:58:00.989Z,11.50
2023-03-27T09:00:39.757Z,11.70
2023-03-27T09:03:35.845Z,11.70
2023-03-27T09:06:12.653Z,11.80
2023-03-27T09:09:03.913Z,11.90
2023-03-27T09:11:31.514Z,11.90
2023-03-27T09:14:02.226Z,11.90
2023-03-27T09:16:41.514Z,11.90
2023-03-27T09:19:22.573Z,11.90
2023-03-27T09:21:54.631Z,11.90
2023-03-27T09:24:46.691Z,11.90
2023-03-27T09:27:35.080Z,11.90
2023-03-27T09:30:22.434Z,11.90
2023-03-27T09:33:05.433Z,11.90
2023-03-27T09:35:35.615Z,11.90
2023-03-27T09:38:24.934Z,11.90
2023-03-27T09:41:13.402Z,11.90
2023-03-27T09:43:53.630Z,12.00
2023-03-27T09:46:22.874Z,12.10
2023-03-27T09:49:08.831Z,12.20
2023-03-27T09:51:38.624Z,12.20
2023-03-27T09:54:09.262Z,12.20
2023-03-27T09:56:42.813Z,12.30
2023-03-27T09:59:33.872Z,12.40
2023-03-27T10:02:29.001Z,12.50
2023-03-27T10:05:12.290Z,12.60
2023-03-27T10:07:43.594Z,12.70
2023-03-27T10:10:37.833Z,12.70
2023-03-27T10:13:06.475Z,12.80
2023-03-27T10:15:42.547Z,12.90
2023-03-27T10:18:27.457Z,12.90
2023-03-27T10:21:35.674Z,13.00
2023-03-27T10:24:18.256Z,13.00
2023-03-27T10:27:04.889Z,13.00
2023-03-27T10:29:39.084Z,13.00
2023-03-27T10:32:11.870Z,13.00
2023-03-27T10:35:03.242Z,13.00
2023-03-27T10:37:51.479Z,13.00
2023-03-27T10:40:57.389Z,13.00
2023-03-27T10:43:42.855Z,13.00
2023-03-27T10:46:31.097Z,13.00
2023-03-27T10:49:32.625Z,13.00
2023-03-27T10:52:14.203Z,13.00
2023-03-27T10:55:00.021Z,13.00
2023-03-27T10:57:30.765Z,12.90
2023-03-27T11:00:13.662Z,12.90
2023-03-27T11:02:58.158Z,12.90
2023-03-27T11:05:40.119Z,13.10
2023-03-27T11:08:32.012Z,13.20
2023-03-27T11:11:25.336Z,13.30
2023-03-27T11:13:56.411Z,13.40
2023-03-27T11:16:29.628Z,13.50
2023-03-27T11:19:31.341Z,13.60
2023-03-27T11:22:29.303Z,13.70
2023-03-27T11:25:14.024Z,13.80
2023-03-27T11:27:53.915Z,13.90
2023-03-27T11:30:44.966Z,14.00
2023-03-27T11:33:26.355Z,14.10
2023-03-27T11:36:37.557Z,14.30
2023-03-27T11:39:32.378Z,14.30
2023-03-27T11:42:09.333Z,14.50
2023-03-27T11:44:36.863Z,14.50
2023-03-27T11:47:22.418Z,14.70
2023-03-27T11:50:16.658Z,14.80
2023-03-27T11:53:08.919Z,15.00
2023-03-27T11:56:19.283Z,15.20
2023-03-27T11:59:04.504Z,15.40
2023-03-27T12:01:55.918Z,15.50
2023-03-27T12:04:28.949Z,15.70
2023-03-27T12:07:46.573Z,15.80
2023-03-27T12:10:28.447Z,15.90
2023-03-27T12:14:14.000Z,16.20
2023-03-27T12:16:58.152Z,16.40
2023-03-27T12:19:56.748Z,16.50
2023-03-27T12:22:51.953Z,16.60
2023-03-27T12:25:54.873Z,16.70
2023-03-27T12:29:23.579Z,16.80
2023-03-27T12:32:16.903Z,16.90
2023-03-27T12:34:55.580Z,17.20
2023-03-27T12:37:40.365Z,17.30
2023-03-27T12:40:25.785Z,17.40
2023-03-27T12:42:54.116Z,17.40
2023-03-27T12:45:26.933Z,17.30
2023-03-27T12:48:17.714Z,17.10
2023-03-27T12:50:56.729Z,16.70
2023-03-27T12:53:25.600Z,16.40
2023-03-27T12:56:29.609Z,16.40
2023-03-27T12:58:58.592Z,16.50
2023-03-27T13:01:51.799Z,16.40
2023-03-27T13:04:57.158Z,16.40
2023-03-27T13:07:28.950Z,16.50
2023-03-27T13:10:16.193Z,16.60
2023-03-27T13:13:14.261Z,16.60
2023-03-27T13:16:01.180Z,16.60
2023-03-27T13:18:41.099Z,16.60
2023-03-27T13:21:23.583Z,16.60
2023-03-27T13:24:30.800Z,16.60
2023-03-27T13:27:17.996Z,16.60
2023-03-27T13:29:50.504Z,16.30
2023-03-27T13:32:40.326Z,16.00
2023-03-27T13:35:19.547Z,15.70
2023-03-27T13:38:00.749Z,15.80
2023-03-27T13:40:36.938Z,15.70
2023-03-27T13:43:26.742Z,15.60
2023-03-27T13:46:05.334Z,15.60
2023-03-27T13:49:00.317Z,15.40
2023-03-27T13:52:05.591Z,15.40
2023-03-27T13:54:59.756Z,15.30
2023-03-27T13:58:26.298Z,15.30
2023-03-27T14:01:13.246Z,15.40
2023-03-27T14:03:49.762Z,15.40
2023-03-27T14:07:01.515Z,15.40
2023-03-27T14:09:42.122Z,15.40
2023-03-27T14:12:38.923Z,15.30
2023-03-27T14:15:36.257Z,15.30
2023-03-27T14:18:42.207Z,15.20
2023-03-27T14:21:31.161Z,15.30
2023-03-27T14:24:24.289Z,15.30
2023-03-27T14:26:59.530Z,15.20
2023-03-27T14:29:26.863Z,15.20
2023-03-27T14:32:03.320Z,15.20
2023-03-27T14:34:47.151Z,15.30
2023-03-27T14:37:39.185Z,15.40
2023-03-27T14:40:23.655Z,15.40
2023-03-27T14:43:01.256Z,15.30
2023-03-27T14:45:37.439Z,15.40
2023-03-27T14:48:09.760Z,15.50
2023-03-27T14:50:46.430Z,15.40
2023-03-27T14:53:21.959Z,15.80
2023-03-27T14:56:37.174Z,16.00
2023-03-27T14:59:13.922Z,16.30
2023-03-27T15:01:54.848Z,16.40
2023-03-27T15:04:22.330Z,16.40
2023-03-27T15:06:49.995Z,16.40
2023-03-27T15:09:37.410Z,16.40
2023-03-27T15:12:24.344Z,16.30
2023-03-27T15:14:53.053Z,16.00
2023-03-27T15:17:20.963Z,16.00
2023-03-27T15:19:49.226Z,15.90
2023-03-27T15:22:34.034Z,15.80
2023-03-27T15:25:17.548Z,15.50
2023-03-27T15:27:53.029Z,15.50
2023-03-27T15:30:40.367Z,15.30
2023-03-27T15:33:12.818Z,15.30
2023-03-27T15:35:45.819Z,15.30
2023-03-27T15:38:15.811Z,15.20
2023-03-27T15:40:46.755Z,15.10
2023-03-27T15:43:13.763Z,15.10
2023-03-27T15:46:15.539Z,15.00
2023-03-27T15:48:45.606Z,14.90
2023-03-27T15:51:18.766Z,14.80
2023-03-27T15:53:48.631Z,14.60
2023-03-27T15:56:24.383Z,14.60
2023-03-27T15:58:58.695Z,14.70
2023-03-27T16:01:36.287Z,14.60
2023-03-27T16:04:19.008Z,14.60
2023-03-27T16:06:52.231Z,14.60
2023-03-27T16:09:32.798Z,14.50
2023-03-27T16:12:00.594Z,14.40
2023-03-27T16:14:36.462Z,14.20
2023-03-27T16:17:12.256Z,14.10
2023-03-27T16:19:49.492Z,14.20
2023-03-27T16:22:39.013Z,14.20
2023-03-27T16:25:11.400Z,14.30
2023-03-27T16:27:43.779Z,14.60
2023-03-27T16:30:23.029Z,15.10
2023-03-27T16:32:51.108Z,15.40
2023-03-27T16:35:18.474Z,15.80
2023-03-27T16:37:45.728Z,16.00
2023-03-27T16:40:15.296Z,16.40
2023-03-27T16:42:42.349Z,16.50
2023-03-27T16:45:39.777Z,16.70
2023-03-27T16:48:11.441Z,16.50
2023-03-27T16:50:38.791Z,16.20
2023-03-27T16:53:08.337Z,15.80
2023-03-27T16:55:38.870Z,15.60
2023-03-27T16:58:15.334Z,15.30
2023-03-27T17:00:49.310Z,15.00
2023-03-27T17:03:16.849Z,14.90
2023-03-27T17:05:44.251Z,14.80
2023-03-27T17:08:13.226Z,14.70
2023-03-27T17:10:40.191Z,14.50
2023-03-27T17:13:07.101Z,14.40
2023-03-27T17:15:38.619Z,14.20
2023-03-27T17:18:06.331Z,14.00
2023-03-27T17:20:34.637Z,13.90
2023-03-27T17:23:01.670Z,13.70
2023-03-27T17:25:28.699Z,13.60
2023-03-27T17:27:55.566Z,13.50
2023-03-27T17:30:36.783Z,13.40
2023-03-27T17:33:05.701Z,13.30
2023-03-27T17:35:32.692Z,13.30
2023-03-27T17:37:59.670Z,13.20
2023-03-27T17:40:26.565Z,13.10
2023-03-27T17:42:53.584Z,13.00
2023-03-27T17:45:21.331Z,12.90
2023-03-27T17:47:48.361Z,12.90
2023-03-27T17:50:15.225Z,12.80
2023-03-27T17:52:42.384Z,12.70
2023-03-27T17:55:09.622Z,12.70
2023-03-27T17:57:39.436Z,12.70
2023-03-27T18:00:07.298Z,12.70
2023-03-27T18:02:39.707Z,12.60
2023-03-27T18:05:07.375Z,12.50
2023-03-27T18:07:34.352Z,12.40
2023-03-27T18:10:02.294Z,12.30
2023-03-27T18:12:32.790Z,12.20
2023-03-27T18:15:00.335Z,12.00
2023-03-27T18:17:27.863Z,12.00
2023-03-27T18:19:54.752Z,11.90
2023-03-27T18:22:21.788Z,11.80
2023-03-27T18:24:48.781Z,11.70
2023-03-27T18:27:16.497Z,11.70
2023-03-27T18:29:43.376Z,11.50
2023-03-27T18:32:10.301Z,11.40
2023-03-27T18:34:37.143Z,11.40
2023-03-27T18:37:04.012Z,11.40
2023-03-27T18:39:31.517Z,11.40
2023-03-27T18:42:01.594Z,11.40
2023-03-27T18:44:28.535Z,11.30
2023-03-27T18:46:55.638Z,11.30
2023-03-27T18:49:25.269Z,11.40
2023-03-27T18:51:52.315Z,11.40
2023-03-27T18:54:19.257Z,11.30
2023-03-27T18:56:47.096Z,11.20
2023-03-27T18:59:14.420Z,11.10
2023-03-27T19:01:41.614Z,11.00
2023-03-27T19:04:09.912Z,10.80
2023-03-27T19:06:37.048Z,10.70
2023-03-27T19:09:04.085Z,10.80
2023-03-27T19:11:31.277Z,10.80
2023-03-27T19:14:07.893Z,10.70
2023-03-27T19:16:43.786Z,10.80
2023-03-27T19:19:13.730Z,10.80
2023-03-27T19:21:52.768Z,10.80
2023-03-27T19:24:43.179Z,10.60
2023-03-27T19:27:23.758Z,10.50
2023-03-27T19:29:54.930Z,10.50
2023-03-27T19:32:24.374Z,10.60
2023-03-27T19:34:51.412Z,10.60
2023-03-27T19:37:18.235Z,10.60
2023-03-27T19:39:45.378Z,10.60
2023-03-27T19:42:12.693Z,10.50
2023-03-27T19:44:39.837Z,10.50
2023-03-27T19:47:08.760Z,10.60
2023-03-27T19:49:38.691Z,10.50
2023-03-27T19:52:36.155Z,10.40
2023-03-27T19:55:03.903Z,10.50
2023-03-27T19:57:30.901Z,10.50
2023-03-27T19:59:57.822Z,10.40
2023-03-27T20:02:24.898Z,10.40
2023-03-27T20:04:51.865Z,10.60
2023-03-27T20:07:18.712Z,10.30
2023-03-27T20:09:45.771Z,10.40
2023-03-27T20:12:12.856Z,10.40
2023-03-27T20:14:39.777Z,10.40
2023-03-27T20:17:12.114Z,10.40
2023-03-27T20:19:49.853Z,10.40
2023-03-27T20:22:20.534Z,10.50
2023-03-27T20:24:48.886Z,10.50
2023-03-27T20:27:20.997Z,10.50
2023-03-27T20:29:50.274Z,10.50
2023-03-27T20:32:17.246Z,10.50
2023-03-27T20:34:46.271Z,10.50
2023-03-27T20:37:13.830Z,10.50
2023-03-27T20:40:05.007Z,10.50
2023-03-27T20:42:38.764Z,10.40
2023-03-27T20:45:07.003Z,10.30
2023-03-27T20:47:39.234Z,10.40
2023-03-27T20:50:07.069Z,10.30
2023-03-27T20:52:34.067Z,10.30
2023-03-27T20:55:01.846Z,10.20
2023-03-27T20:57:30.418Z,10.30
2023-03-27T20:59:58.182Z,10.20
2023-03-27T21:02:26.325Z,10.30
2023-03-27T21:04:54.511Z,10.20
2023-03-27T21:07:21.785Z,10.40
2023-03-27T21:09:48.767Z,10.30
2023-03-27T21:12:15.821Z,10.30
2023-03-27T21:14:42.680Z,10.30
2023-03-27T21:17:11.932Z,10.30
2023-03-27T21:19:38.759Z,10.20
2023-03-27T21:22:05.798Z,10.30
2023-03-27T21:24:32.628Z,10.20
2023-03-27T21:27:00.253Z,10.20
2023-03-27T21:29:27.141Z,10.20
2023-03-27T21:31:54.102Z,10.20
2023-03-27T21:34:21.113Z,10.10
2023-03-27T21:36:48.019Z,10.00
2023-03-27T21:39:14.961Z,10.00
2023-03-27T21:41:41.957Z,9.90
2023-03-27T21:44:08.786Z,9.80
2023-03-27T21:46:35.897Z,9.80
2023-03-27T21:49:03.007Z,9.70
2023-03-27T21:51:29.913Z,9.60
2023-03-27T21:53:56.769Z,9.50
2023-03-27T21:56:23.693Z,9.50
2023-03-27T21:58:50.513Z,9.30
2023-03-27T22:01:17.588Z,9.30
2023-03-27T22:03:44.476Z,9.20
2023-03-27T22:06:13.349Z,9.10
2023-03-27T22:08:42.966Z,9.10
2023-03-27T22:11:11.232Z,9.00
2023-03-27T22:13:38.708Z,9.00
2023-03-27T22:16:14.537Z,8.90
2023-03-27T22:18:42.014Z,8.80
2023-03-27T22:21:24.960Z,8.80
2023-03-27T22:23:54.135Z,8.80
2023-03-27T22:26:27.206Z,8.70
2023-03-27T22:28:54.257Z,8.60
2023-03-27T22:31:22.439Z,8.50
2023-03-27T22:33:50.003Z,8.50
2023-03-27T22:36:17.585Z,8.40
2023-03-27T22:38:44.867Z,8.40
2023-03-27T22:41:13.199Z,8.40
2023-03-27T22:43:40.317Z,8.40
2023-03-27T22:46:11.618Z,8.40
2023-03-27T22:48:38.818Z,8.40
2023-03-27T22:51:06.415Z,8.40
2023-03-27T22:53:33.637Z,8.30
2023-03-27T22:56:01.889Z,8.40
2023-03-27T22:58:29.999Z,8.40
2023-03-27T23:00:56.903Z,8.40
2023-03-27T23:03:25.718Z,8.70
2023-03-27T23:05:53.297Z,8.60
2023-03-27T23:08:24.017Z,8.60
2023-03-27T23:10:59.297Z,8.70
2023-03-27T23:13:27.765Z,8.80
2023-03-27T23:15:54.814Z,8.80
2023-03-27T23:18:24.625Z,8.80
2023-03-27T23:20:55.067Z,8.70
2023-03-27T23:23:22.514Z,8.60
2023-03-27T23:25:49.472Z,8.70
2023-03-27T23:28:16.412Z,8.40
2023-03-27T23:30:44.643Z,8.50
2023-03-27T23:33:12.443Z,8.20
2023-03-27T23:35:39.323Z,8.10
2023-03-27T23:38:06.341Z,8.00
2023-03-27T23:40:34.967Z,7.90
2023-03-27T23:43:01.945Z,7.90
2023-03-27T23:45:29.535Z,7.70
2023-03-27T23:47:56.462Z,7.80
2023-03-27T23:50:23.342Z,7.70
2023-03-27T23:52:50.269Z,7.50
2023-03-27T23:55:17.218Z,7.50
2023-03-27T23:57:44.023Z,7.40
